createdAt,value
2017-08-03T00:00:00.724Z,0
2017-08-03T00:01:01.299Z,0
2017-08-03T00:02:01.875Z,0
2017-08-03T00:03:02.450Z,0
2017-08-03T00:04:03.025Z,0
2017-08-03T00:05:03.601Z,0
2017-08-03T00:06:04.176Z,0
2017-08-03T00:07:04.763Z,0
2017-08-03T00:08:05.339Z,0
2017-08-03T00:09:05.915Z,0
2017-08-03T00:10:06.491Z,0
2017-08-03T00:11:07.067Z,0
2017-08-03T00:12:07.643Z,0
2017-08-03T00:13:08.219Z,0
2017-08-03T00:14:08.795Z,0
2017-08-03T00:15:09.371Z,0
2017-08-03T00:16:09.947Z,0
2017-08-03T00:17:10.525Z,0
2017-08-03T00:18:11.101Z,0
2017-08-03T00:19:11.679Z,0
2017-08-03T00:20:12.254Z,0
2017-08-03T00:21:12.831Z,0
2017-08-03T00:22:13.420Z,0
2017-08-03T00:23:14.005Z,0
2017-08-03T00:24:14.581Z,0
2017-08-03T00:25:15.156Z,0
2017-08-03T00:26:15.733Z,0
2017-08-03T00:27:16.307Z,0
2017-08-03T00:28:16.884Z,0
2017-08-03T00:29:17.459Z,0
2017-08-03T00:30:18.040Z,0
2017-08-03T00:31:18.610Z,0
2017-08-03T00:32:19.187Z,0
2017-08-03T00:33:19.761Z,0
2017-08-03T00:34:20.338Z,0
2017-08-03T00:35:20.913Z,0
2017-08-03T00:36:21.490Z,0
2017-08-03T00:37:22.065Z,0
2017-08-03T00:38:22.640Z,0
2017-08-03T00:39:23.215Z,0
2017-08-03T00:40:23.790Z,0
2017-08-03T00:41:24.363Z,0
2017-08-03T00:42:24.940Z,0
2017-08-03T00:43:25.515Z,0
2017-08-03T00:44:26.093Z,0
2017-08-03T00:45:26.665Z,0
2017-08-03T00:46:27.241Z,0
2017-08-03T00:47:27.817Z,0
2017-08-03T00:48:28.405Z,0
2017-08-03T00:49:28.982Z,0
2017-08-03T00:50:29.557Z,0
2017-08-03T00:51:30.136Z,0
2017-08-03T00:52:30.711Z,0
2017-08-03T00:53:31.288Z,0
2017-08-03T00:54:31.863Z,0
2017-08-03T00:55:32.438Z,0
2017-08-03T00:56:33.015Z,0
2017-08-03T00:57:33.592Z,0
2017-08-03T00:58:34.168Z,0
2017-08-03T00:59:34.744Z,0
2017-08-03T01:00:35.320Z,0
2017-08-03T01:01:35.895Z,0
2017-08-03T01:02:36.471Z,0
2017-08-03T01:03:37.047Z,0
2017-08-03T01:04:37.622Z,0
2017-08-03T01:05:38.198Z,0
2017-08-03T01:06:38.783Z,0
2017-08-03T01:07:39.360Z,0
2017-08-03T01:08:39.936Z,0
2017-08-03T01:09:40.513Z,0
2017-08-03T01:10:41.091Z,0
2017-08-03T01:11:41.665Z,0
2017-08-03T01:12:42.243Z,0
2017-08-03T01:13:42.820Z,0
2017-08-03T01:14:43.397Z,0
2017-08-03T01:15:43.985Z,0
2017-08-03T01:16:44.561Z,0
2017-08-03T01:17:45.139Z,0
2017-08-03T01:18:45.716Z,0
2017-08-03T01:19:46.292Z,0
2017-08-03T01:20:46.868Z,0
2017-08-03T01:21:47.445Z,0
2017-08-03T01:22:48.020Z,0
2017-08-03T01:23:48.597Z,0
2017-08-03T01:24:49.173Z,0
2017-08-03T01:25:49.749Z,0
2017-08-03T01:27:03.061Z,0
2017-08-03T01:28:03.638Z,0
2017-08-03T01:29:04.215Z,0
2017-08-03T01:30:04.791Z,0
2017-08-03T01:31:05.379Z,0
2017-08-03T01:32:05.956Z,0
2017-08-03T01:33:06.540Z,0
2017-08-03T01:34:07.112Z,0
2017-08-03T01:35:07.697Z,0
2017-08-03T01:36:08.285Z,0
2017-08-03T01:37:08.861Z,0
2017-08-03T01:38:09.435Z,0
2017-08-03T01:39:10.012Z,0
2017-08-03T01:40:10.587Z,0
2017-08-03T01:41:11.163Z,0
2017-08-03T01:42:11.739Z,0
2017-08-03T01:43:12.315Z,0
2017-08-03T01:44:12.891Z,0
2017-08-03T01:45:13.467Z,0
2017-08-03T01:46:14.044Z,0
2017-08-03T01:47:14.621Z,0
2017-08-03T01:48:15.197Z,0
2017-08-03T01:49:15.771Z,0
2017-08-03T01:50:16.358Z,0
2017-08-03T01:51:16.934Z,0
2017-08-03T01:52:17.511Z,0
2017-08-03T01:53:18.088Z,0
2017-08-03T01:54:18.664Z,0
2017-08-03T01:55:19.251Z,0
2017-08-03T01:56:19.824Z,0
2017-08-03T01:57:20.400Z,0
2017-08-03T01:58:20.974Z,0
2017-08-03T01:59:21.549Z,0
2017-08-03T02:00:22.125Z,0
2017-08-03T02:01:22.700Z,0
2017-08-03T02:02:23.289Z,0
2017-08-03T02:03:23.870Z,0
2017-08-03T02:04:24.445Z,0
2017-08-03T02:05:25.022Z,0
2017-08-03T02:06:25.601Z,0
2017-08-03T02:07:26.174Z,0
2017-08-03T02:08:26.748Z,0
2017-08-03T02:09:27.333Z,0
2017-08-03T02:10:27.910Z,0
2017-08-03T02:11:28.487Z,0
2017-08-03T02:12:29.064Z,0
2017-08-03T02:13:29.640Z,0
2017-08-03T02:14:30.215Z,0
2017-08-03T02:15:30.791Z,0
2017-08-03T02:16:31.369Z,0
2017-08-03T02:17:31.944Z,0
2017-08-03T02:18:32.520Z,0
2017-08-03T02:19:33.096Z,0
2017-08-03T02:20:33.673Z,0
2017-08-03T02:21:34.261Z,0
2017-08-03T02:22:34.837Z,0
2017-08-03T02:23:35.416Z,0
2017-08-03T02:24:35.994Z,0
2017-08-03T02:25:36.577Z,0
2017-08-03T02:26:37.152Z,0
2017-08-03T02:27:37.726Z,0
2017-08-03T02:28:38.314Z,0
2017-08-03T02:29:38.889Z,0
2017-08-03T02:30:39.467Z,0
2017-08-03T02:31:40.043Z,0
2017-08-03T02:32:40.620Z,0
2017-08-03T02:33:41.195Z,0
2017-08-03T02:34:41.770Z,0
2017-08-03T02:35:42.349Z,0
2017-08-03T02:36:42.921Z,0
2017-08-03T02:37:43.496Z,0
2017-08-03T02:38:44.073Z,0
2017-08-03T02:39:44.648Z,0
2017-08-03T02:40:45.223Z,0
2017-08-03T02:41:45.799Z,0
2017-08-03T02:42:46.376Z,0
2017-08-03T02:43:46.951Z,0
2017-08-03T02:44:47.527Z,0
2017-08-03T02:45:48.100Z,0
2017-08-03T02:46:48.678Z,0
2017-08-03T02:47:49.264Z,0
2017-08-03T02:48:49.838Z,0
2017-08-03T02:49:50.416Z,0
2017-08-03T02:50:50.991Z,0
2017-08-03T02:51:51.570Z,0
2017-08-03T02:52:52.145Z,0
2017-08-03T02:53:52.720Z,0
2017-08-03T02:54:53.295Z,0
2017-08-03T02:55:53.872Z,0
2017-08-03T02:56:54.447Z,0
2017-08-03T02:57:55.027Z,0
2017-08-03T02:58:55.610Z,0
2017-08-03T02:59:56.185Z,0
2017-08-03T03:00:56.764Z,0
2017-08-03T03:01:57.351Z,0
2017-08-03T03:02:57.925Z,0
2017-08-03T03:03:58.511Z,0
2017-08-03T03:04:59.088Z,0
2017-08-03T03:05:59.665Z,0
2017-08-03T03:07:00.239Z,0
2017-08-03T03:08:00.816Z,0
2017-08-03T03:09:01.391Z,0
2017-08-03T03:10:01.967Z,0
2017-08-03T03:11:02.543Z,0
2017-08-03T03:12:03.121Z,0
2017-08-03T03:13:03.697Z,0
2017-08-03T03:14:04.273Z,0
2017-08-03T03:15:04.849Z,0
2017-08-03T03:16:05.425Z,0
2017-08-03T03:17:06.003Z,0
2017-08-03T03:18:06.574Z,0
2017-08-03T03:19:07.168Z,0
2017-08-03T03:20:07.731Z,0
2017-08-03T03:21:08.302Z,0
2017-08-03T03:22:08.877Z,0
2017-08-03T03:23:09.464Z,0
2017-08-03T03:24:10.038Z,0
2017-08-03T03:25:10.616Z,0
2017-08-03T03:26:11.191Z,0
2017-08-03T03:27:11.769Z,0
2017-08-03T03:28:12.344Z,0
2017-08-03T03:29:12.932Z,0
2017-08-03T03:30:13.510Z,0
2017-08-03T03:31:14.086Z,0
2017-08-03T03:32:14.671Z,0
2017-08-03T03:33:15.246Z,0
2017-08-03T03:34:15.822Z,0
2017-08-03T03:35:16.396Z,0
2017-08-03T03:36:16.971Z,0
2017-08-03T03:37:17.552Z,0
2017-08-03T03:38:18.122Z,0
2017-08-03T03:39:18.696Z,0
2017-08-03T03:40:19.271Z,0
2017-08-03T03:41:19.847Z,0
2017-08-03T03:42:20.424Z,0
2017-08-03T03:43:20.998Z,0
2017-08-03T03:44:21.575Z,0
2017-08-03T03:45:22.150Z,0
2017-08-03T03:46:22.727Z,0
2017-08-03T03:47:23.314Z,0
2017-08-03T03:48:23.889Z,0
2017-08-03T03:49:24.466Z,0
2017-08-03T03:50:25.053Z,0
2017-08-03T03:51:25.627Z,0
2017-08-03T03:52:26.202Z,0
2017-08-03T03:53:26.775Z,0
2017-08-03T03:54:27.350Z,0
2017-08-03T03:55:27.948Z,0
2017-08-03T03:56:28.500Z,0
2017-08-03T03:57:29.075Z,0
2017-08-03T03:58:29.650Z,0
2017-08-03T03:59:30.227Z,0
2017-08-03T04:00:30.804Z,0
2017-08-03T04:01:31.377Z,0
2017-08-03T04:02:31.953Z,0
2017-08-03T04:03:32.527Z,0
2017-08-03T04:04:33.103Z,0
2017-08-03T04:05:33.691Z,0
2017-08-03T04:06:34.267Z,0
2017-08-03T04:07:34.854Z,0
2017-08-03T04:08:35.419Z,0
2017-08-03T04:09:36.009Z,0
2017-08-03T04:10:36.580Z,0
2017-08-03T04:11:37.155Z,0
2017-08-03T04:12:37.730Z,0
2017-08-03T04:13:38.304Z,0
2017-08-03T04:14:38.879Z,0
2017-08-03T04:15:39.453Z,0
2017-08-03T04:16:40.032Z,0
2017-08-03T04:17:40.619Z,0
2017-08-03T04:18:41.196Z,0
2017-08-03T04:19:41.774Z,0
2017-08-03T04:20:42.350Z,0
2017-08-03T04:21:42.926Z,0
2017-08-03T04:22:43.516Z,0
2017-08-03T04:23:44.091Z,0
2017-08-03T04:24:44.669Z,0
2017-08-03T04:25:45.254Z,0
2017-08-03T04:26:45.830Z,0
2017-08-03T04:27:46.406Z,0
2017-08-03T04:28:46.982Z,0
2017-08-03T04:29:47.560Z,0
2017-08-03T04:30:48.137Z,0
2017-08-03T04:31:48.716Z,0
2017-08-03T04:32:49.293Z,0
2017-08-03T04:33:49.871Z,0
2017-08-03T04:34:50.446Z,0
2017-08-03T04:35:51.025Z,0
2017-08-03T04:36:51.602Z,0
2017-08-03T04:37:52.178Z,0
2017-08-03T04:38:52.753Z,0
2017-08-03T04:39:53.341Z,0
2017-08-03T04:40:53.919Z,0
2017-08-03T04:41:54.496Z,0
2017-08-03T04:42:55.073Z,0
2017-08-03T04:43:55.648Z,0
2017-08-03T04:44:56.225Z,0
2017-08-03T04:45:56.804Z,0
2017-08-03T04:46:57.378Z,0
2017-08-03T04:47:57.954Z,0
2017-08-03T04:48:58.531Z,0
2017-08-03T04:49:59.105Z,0
2017-08-03T04:50:59.683Z,0
2017-08-03T04:52:00.269Z,0
2017-08-03T04:53:00.846Z,0
2017-08-03T04:54:01.423Z,0
2017-08-03T04:55:01.999Z,0
2017-08-03T04:56:02.576Z,0
2017-08-03T04:57:03.153Z,0
2017-08-03T04:58:03.727Z,0
2017-08-03T04:59:04.305Z,0
2017-08-03T05:00:04.881Z,0
2017-08-03T05:01:05.457Z,0
2017-08-03T05:02:06.033Z,0
2017-08-03T05:03:06.611Z,0
2017-08-03T05:04:07.187Z,0
2017-08-03T05:05:07.770Z,0
2017-08-03T05:06:08.343Z,0
2017-08-03T05:07:08.923Z,0
2017-08-03T05:08:09.499Z,0
2017-08-03T05:09:10.076Z,0
2017-08-03T05:10:10.652Z,0
2017-08-03T05:11:11.230Z,0
2017-08-03T05:12:11.819Z,0
2017-08-03T05:13:12.396Z,0
2017-08-03T05:14:12.975Z,5
2017-08-03T05:15:13.553Z,5
2017-08-03T05:16:14.136Z,5
2017-08-03T05:17:14.719Z,5
2017-08-03T05:18:15.296Z,5
2017-08-03T05:19:15.874Z,5
2017-08-03T05:20:16.455Z,5
2017-08-03T05:21:17.028Z,5
2017-08-03T05:22:17.606Z,5
2017-08-03T05:23:18.183Z,5
2017-08-03T05:24:18.763Z,5
2017-08-03T05:25:19.342Z,5
2017-08-03T05:26:19.920Z,5
2017-08-03T05:27:20.496Z,5
2017-08-03T05:28:21.075Z,5
2017-08-03T05:29:21.655Z,5
2017-08-03T05:30:22.232Z,5
2017-08-03T05:31:22.808Z,5
2017-08-03T05:32:23.386Z,5
2017-08-03T05:33:23.964Z,5
2017-08-03T05:34:24.544Z,5
2017-08-03T05:35:25.122Z,5
2017-08-03T05:36:25.697Z,5
2017-08-03T05:37:26.277Z,5
2017-08-03T05:38:26.853Z,5
2017-08-03T05:39:27.430Z,5
2017-08-03T05:40:28.020Z,5
2017-08-03T05:41:28.598Z,10
2017-08-03T05:42:29.178Z,10
2017-08-03T05:43:29.756Z,10
2017-08-03T05:44:30.336Z,10
2017-08-03T05:45:30.916Z,10
2017-08-03T05:46:31.494Z,10
2017-08-03T05:47:32.075Z,10
2017-08-03T05:48:32.665Z,10
2017-08-03T05:49:33.243Z,10
2017-08-03T05:50:33.823Z,10
2017-08-03T05:51:34.401Z,10
2017-08-03T05:52:34.979Z,5
2017-08-03T05:53:35.556Z,5
2017-08-03T05:54:36.146Z,5
2017-08-03T05:55:36.723Z,5
2017-08-03T05:56:37.302Z,5
2017-08-03T05:57:37.880Z,5
2017-08-03T05:58:38.468Z,5
2017-08-03T05:59:39.046Z,5
2017-08-03T06:00:39.624Z,5
2017-08-03T06:01:40.202Z,5
2017-08-03T06:02:40.778Z,5
2017-08-03T06:03:41.357Z,5
2017-08-03T06:04:41.946Z,5
2017-08-03T06:05:42.535Z,5
2017-08-03T06:06:43.115Z,5
2017-08-03T06:07:43.693Z,5
2017-08-03T06:08:44.273Z,10
2017-08-03T06:09:44.853Z,10
2017-08-03T06:10:45.432Z,10
2017-08-03T06:11:46.012Z,10
2017-08-03T06:12:46.590Z,10
2017-08-03T06:13:47.170Z,10
2017-08-03T06:14:47.749Z,10
2017-08-03T06:15:48.327Z,10
2017-08-03T06:16:48.906Z,10
2017-08-03T06:17:49.486Z,10
2017-08-03T06:18:50.067Z,10
2017-08-03T06:19:50.646Z,10
2017-08-03T06:20:51.225Z,10
2017-08-03T06:21:51.804Z,10
2017-08-03T06:22:52.384Z,10
2017-08-03T06:23:52.970Z,10
2017-08-03T06:24:53.544Z,10
2017-08-03T06:25:54.127Z,10
2017-08-03T06:26:54.714Z,10
2017-08-03T06:27:55.304Z,10
2017-08-03T06:28:55.884Z,10
2017-08-03T06:29:56.465Z,10
2017-08-03T06:30:57.045Z,10
2017-08-03T06:31:57.622Z,10
2017-08-03T06:32:58.202Z,10
2017-08-03T06:33:58.782Z,10
2017-08-03T06:34:59.362Z,10
2017-08-03T06:35:59.940Z,10
2017-08-03T06:37:00.520Z,10
2017-08-03T06:38:01.099Z,10
2017-08-03T06:39:01.677Z,10
2017-08-03T06:40:02.258Z,5
2017-08-03T06:41:02.835Z,5
2017-08-03T06:42:03.419Z,5
2017-08-03T06:43:03.991Z,5
2017-08-03T06:44:04.572Z,5
2017-08-03T06:45:05.149Z,5
2017-08-03T06:46:05.727Z,10
2017-08-03T06:47:06.305Z,10
2017-08-03T06:48:06.910Z,10
2017-08-03T06:49:07.464Z,10
2017-08-03T06:50:08.045Z,15
2017-08-03T06:51:08.625Z,15
2017-08-03T06:52:09.205Z,15
2017-08-03T06:53:09.795Z,10
2017-08-03T06:54:10.375Z,10
2017-08-03T06:55:10.954Z,15
2017-08-03T06:56:11.534Z,10
2017-08-03T06:57:12.114Z,10
2017-08-03T06:58:12.693Z,10
2017-08-03T06:59:13.274Z,10
2017-08-03T07:00:13.853Z,10
2017-08-03T07:01:14.433Z,15
2017-08-03T07:02:15.011Z,15
2017-08-03T07:03:15.590Z,15
2017-08-03T07:04:16.170Z,15
2017-08-03T07:05:16.749Z,15
2017-08-03T07:06:17.328Z,20
2017-08-03T07:07:17.907Z,20
2017-08-03T07:08:18.486Z,20
2017-08-03T07:09:19.063Z,20
2017-08-03T07:10:19.644Z,20
2017-08-03T07:11:20.225Z,20
2017-08-03T07:12:20.804Z,20
2017-08-03T07:13:21.383Z,20
2017-08-03T07:14:21.962Z,20
2017-08-03T07:15:22.540Z,20
2017-08-03T07:16:23.121Z,20
2017-08-03T07:17:23.713Z,25
2017-08-03T07:18:24.294Z,20
2017-08-03T07:19:24.873Z,20
2017-08-03T07:20:25.454Z,20
2017-08-03T07:21:26.033Z,25
2017-08-03T07:22:26.611Z,35
2017-08-03T07:23:27.190Z,35
2017-08-03T07:24:27.768Z,30
2017-08-03T07:25:28.348Z,30
2017-08-03T07:26:28.930Z,35
2017-08-03T07:27:29.509Z,40
2017-08-03T07:28:30.088Z,30
2017-08-03T07:29:30.667Z,25
2017-08-03T07:30:31.247Z,20
2017-08-03T07:31:31.829Z,20
2017-08-03T07:32:32.408Z,20
2017-08-03T07:33:32.990Z,20
2017-08-03T07:34:33.568Z,20
2017-08-03T07:35:34.148Z,20
2017-08-03T07:36:34.727Z,20
2017-08-03T07:37:35.308Z,20
2017-08-03T07:38:35.890Z,20
2017-08-03T07:39:36.470Z,20
2017-08-03T07:40:37.061Z,20
2017-08-03T07:41:37.650Z,20
2017-08-03T07:42:38.240Z,20
2017-08-03T07:43:38.819Z,25
2017-08-03T07:44:39.397Z,30
2017-08-03T07:45:39.976Z,30
2017-08-03T07:46:40.568Z,25
2017-08-03T07:47:41.147Z,30
2017-08-03T07:48:41.727Z,25
2017-08-03T07:49:42.318Z,35
2017-08-03T07:50:42.897Z,25
2017-08-03T07:51:43.476Z,20
2017-08-03T07:52:44.054Z,25
2017-08-03T07:53:44.637Z,25
2017-08-03T07:54:45.218Z,20
2017-08-03T07:55:45.799Z,20
2017-08-03T07:56:46.378Z,20
2017-08-03T07:57:46.958Z,20
2017-08-03T07:58:47.537Z,20
2017-08-03T07:59:48.118Z,15
2017-08-03T08:00:48.700Z,15
2017-08-03T08:01:49.279Z,15
2017-08-03T08:02:49.862Z,20
2017-08-03T08:03:50.460Z,20
2017-08-03T08:04:51.029Z,20
2017-08-03T08:05:51.609Z,20
2017-08-03T08:06:52.189Z,25
2017-08-03T08:07:52.769Z,30
2017-08-03T08:08:53.352Z,35
2017-08-03T08:09:53.933Z,30
2017-08-03T08:10:54.514Z,30
2017-08-03T08:11:55.094Z,35
2017-08-03T08:12:55.674Z,25
2017-08-03T08:13:56.256Z,20
2017-08-03T08:14:56.836Z,20
2017-08-03T08:15:57.417Z,20
2017-08-03T08:16:57.997Z,20
2017-08-03T08:17:58.576Z,20
2017-08-03T08:18:59.157Z,20
2017-08-03T08:19:59.737Z,20
2017-08-03T08:21:00.328Z,20
2017-08-03T08:22:00.909Z,20
2017-08-03T08:23:01.490Z,20
2017-08-03T08:24:02.072Z,20
2017-08-03T08:25:02.652Z,20
2017-08-03T08:26:03.232Z,20
2017-08-03T08:27:03.812Z,20
2017-08-03T08:28:04.394Z,20
2017-08-03T08:29:04.977Z,20
2017-08-03T08:30:05.554Z,20
2017-08-03T08:31:06.134Z,20
2017-08-03T08:32:06.714Z,20
2017-08-03T08:33:07.293Z,20
2017-08-03T08:34:07.874Z,20
2017-08-03T08:35:08.454Z,25
2017-08-03T08:36:09.036Z,25
2017-08-03T08:37:09.616Z,20
2017-08-03T08:38:10.196Z,20
2017-08-03T08:39:10.776Z,20
2017-08-03T08:40:11.356Z,20
2017-08-03T08:41:11.938Z,20
2017-08-03T08:42:12.529Z,20
2017-08-03T08:43:13.110Z,20
2017-08-03T08:44:13.690Z,20
2017-08-03T08:45:14.271Z,20
2017-08-03T08:46:14.851Z,20
2017-08-03T08:47:15.429Z,20
2017-08-03T08:48:16.009Z,20
2017-08-03T08:49:16.587Z,15
2017-08-03T08:50:17.168Z,15
2017-08-03T08:51:17.750Z,15
2017-08-03T08:52:18.329Z,15
2017-08-03T08:53:18.910Z,15
2017-08-03T08:54:19.490Z,15
2017-08-03T08:55:20.070Z,15
2017-08-03T08:56:20.651Z,15
2017-08-03T08:57:21.231Z,15
2017-08-03T08:58:21.812Z,20
2017-08-03T08:59:22.391Z,15
2017-08-03T09:00:22.970Z,15
2017-08-03T09:01:23.551Z,15
2017-08-03T09:02:24.130Z,15
2017-08-03T09:03:24.713Z,15
2017-08-03T09:04:25.291Z,15
2017-08-03T09:05:25.872Z,15
2017-08-03T09:06:26.451Z,20
2017-08-03T09:07:27.051Z,20
2017-08-03T09:08:27.611Z,20
2017-08-03T09:09:28.207Z,20
2017-08-03T09:10:28.782Z,20
2017-08-03T09:11:29.364Z,20
2017-08-03T09:12:29.944Z,20
2017-08-03T09:13:30.525Z,30
2017-08-03T09:14:31.104Z,35
2017-08-03T09:15:31.682Z,30
2017-08-03T09:16:32.262Z,35
2017-08-03T09:17:32.843Z,35
2017-08-03T09:18:33.423Z,35
2017-08-03T09:19:34.002Z,35
2017-08-03T09:20:34.583Z,35
2017-08-03T09:21:35.163Z,35
2017-08-03T09:22:35.763Z,35
2017-08-03T09:23:36.325Z,30
2017-08-03T09:24:36.906Z,25
2017-08-03T09:25:37.487Z,25
2017-08-03T09:26:38.065Z,25
2017-08-03T09:27:38.645Z,30
2017-08-03T09:28:39.225Z,30
2017-08-03T09:29:39.805Z,30
2017-08-03T09:30:40.387Z,30
2017-08-03T09:31:40.966Z,30
2017-08-03T09:32:41.549Z,30
2017-08-03T09:33:42.129Z,30
2017-08-03T09:34:42.708Z,30
2017-08-03T09:35:43.290Z,30
2017-08-03T09:36:43.871Z,35
2017-08-03T09:37:44.453Z,35
2017-08-03T09:38:45.034Z,45
2017-08-03T09:39:45.614Z,35
2017-08-03T09:40:46.193Z,50
2017-08-03T09:41:46.774Z,40
2017-08-03T09:42:47.355Z,35
2017-08-03T09:43:47.947Z,45
2017-08-03T09:44:48.528Z,35
2017-08-03T09:45:49.110Z,35
2017-08-03T09:46:49.702Z,35
2017-08-03T09:47:50.282Z,35
2017-08-03T09:48:50.863Z,35
2017-08-03T09:49:51.444Z,35
2017-08-03T09:50:52.023Z,40
2017-08-03T09:51:52.603Z,35
2017-08-03T09:52:53.185Z,35
2017-08-03T09:53:53.768Z,35
2017-08-03T09:54:54.347Z,30
2017-08-03T09:55:54.929Z,50
2017-08-03T09:56:55.509Z,35
2017-08-03T09:57:56.090Z,30
2017-08-03T09:58:56.673Z,30
2017-08-03T09:59:57.262Z,30
2017-08-03T10:00:57.842Z,35
2017-08-03T10:01:58.436Z,35
2017-08-03T10:02:59.015Z,35
2017-08-03T10:03:59.596Z,35
2017-08-03T10:05:00.178Z,35
2017-08-03T10:06:00.761Z,35
2017-08-03T10:07:01.346Z,35
2017-08-03T10:08:01.924Z,30
2017-08-03T10:09:02.504Z,35
2017-08-03T10:10:03.087Z,35
2017-08-03T10:11:03.668Z,30
2017-08-03T10:12:04.249Z,30
2017-08-03T10:13:04.833Z,35
2017-08-03T10:14:05.424Z,50
2017-08-03T10:15:06.004Z,35
2017-08-03T10:16:06.592Z,40
2017-08-03T10:17:07.166Z,35
2017-08-03T10:18:07.747Z,35
2017-08-03T10:19:08.329Z,35
2017-08-03T10:20:08.912Z,35
2017-08-03T10:21:09.492Z,40
2017-08-03T10:22:10.071Z,35
2017-08-03T10:23:10.664Z,35
2017-08-03T10:24:11.244Z,35
2017-08-03T10:25:11.824Z,35
2017-08-03T10:26:12.403Z,35
2017-08-03T10:27:12.982Z,35
2017-08-03T10:28:13.564Z,30
2017-08-03T10:29:14.147Z,30
2017-08-03T10:30:14.729Z,30
2017-08-03T10:31:15.308Z,35
2017-08-03T10:32:15.900Z,35
2017-08-03T10:33:16.482Z,35
2017-08-03T10:34:17.063Z,35
2017-08-03T10:35:17.656Z,35
2017-08-03T10:36:18.249Z,30
2017-08-03T10:37:18.832Z,25
2017-08-03T10:38:19.413Z,35
2017-08-03T10:39:19.993Z,35
2017-08-03T10:40:20.573Z,35
2017-08-03T10:41:21.154Z,30
2017-08-03T10:42:21.736Z,20
2017-08-03T10:43:22.318Z,25
2017-08-03T10:44:22.902Z,30
2017-08-03T10:45:23.481Z,30
2017-08-03T10:46:24.061Z,25
2017-08-03T10:47:24.643Z,20
2017-08-03T10:48:25.224Z,20
2017-08-03T10:49:25.814Z,20
2017-08-03T10:50:26.387Z,25
2017-08-03T10:51:26.970Z,25
2017-08-03T10:52:27.559Z,25
2017-08-03T10:53:28.139Z,25
2017-08-03T10:54:28.719Z,25
2017-08-03T10:55:29.299Z,25
2017-08-03T10:56:29.882Z,25
2017-08-03T10:57:30.471Z,25
2017-08-03T10:58:31.050Z,20
2017-08-03T10:59:31.630Z,20
2017-08-03T11:00:32.221Z,25
2017-08-03T11:01:32.790Z,20
2017-08-03T11:02:33.373Z,20
2017-08-03T11:03:33.954Z,15
2017-08-03T11:04:34.535Z,10
2017-08-03T11:05:35.115Z,10
2017-08-03T11:06:35.697Z,10
2017-08-03T11:07:36.277Z,5
2017-08-03T11:08:36.857Z,5
2017-08-03T11:09:37.437Z,5
2017-08-03T11:10:38.017Z,5
2017-08-03T11:11:38.595Z,5
2017-08-03T11:12:39.176Z,5
2017-08-03T11:13:39.755Z,5
2017-08-03T11:14:40.347Z,10
2017-08-03T11:15:40.927Z,10
2017-08-03T11:16:41.506Z,10
2017-08-03T11:17:42.088Z,15
2017-08-03T11:18:42.668Z,20
2017-08-03T11:19:43.250Z,20
2017-08-03T11:20:43.830Z,20
2017-08-03T11:21:44.409Z,20
2017-08-03T11:22:44.989Z,20
2017-08-03T11:23:45.571Z,20
2017-08-03T11:24:46.152Z,20
2017-08-03T11:25:46.732Z,20
2017-08-03T11:26:47.324Z,25
2017-08-03T11:27:47.905Z,20
2017-08-03T11:28:48.485Z,20
2017-08-03T11:29:49.066Z,20
2017-08-03T11:30:49.644Z,20
2017-08-03T11:31:50.223Z,15
2017-08-03T11:32:50.804Z,10
2017-08-03T11:33:51.393Z,10
2017-08-03T11:34:51.967Z,10
2017-08-03T11:35:52.547Z,15
2017-08-03T11:36:53.126Z,20
2017-08-03T11:37:53.705Z,20
2017-08-03T11:38:54.285Z,20
2017-08-03T11:39:54.865Z,20
2017-08-03T11:40:55.446Z,25
2017-08-03T11:41:56.025Z,30
2017-08-03T11:42:56.606Z,30
2017-08-03T11:43:57.185Z,25
2017-08-03T11:44:57.764Z,25
2017-08-03T11:45:58.344Z,25
2017-08-03T11:46:58.925Z,25
2017-08-03T11:47:59.505Z,25
2017-08-03T11:49:00.096Z,30
2017-08-03T11:50:00.678Z,35
2017-08-03T11:51:01.259Z,40
2017-08-03T11:52:01.839Z,40
2017-08-03T11:53:02.418Z,40
2017-08-03T11:54:03.000Z,40
2017-08-03T11:55:03.582Z,35
2017-08-03T11:56:04.161Z,35
2017-08-03T11:57:04.740Z,40
2017-08-03T11:58:05.320Z,40
2017-08-03T11:59:05.899Z,40
2017-08-03T12:00:06.479Z,40
2017-08-03T12:01:07.059Z,45
2017-08-03T12:02:07.641Z,30
2017-08-03T12:03:08.235Z,45
2017-08-03T12:04:08.816Z,45
2017-08-03T12:05:09.411Z,45
2017-08-03T12:06:09.992Z,45
2017-08-03T12:07:10.584Z,45
2017-08-03T12:08:11.163Z,45
2017-08-03T12:09:11.744Z,30
2017-08-03T12:10:12.323Z,35
2017-08-03T12:11:12.903Z,35
2017-08-03T12:12:13.486Z,40
2017-08-03T12:13:14.067Z,45
2017-08-03T12:14:14.649Z,55
2017-08-03T12:15:15.229Z,30
2017-08-03T12:16:15.809Z,45
2017-08-03T12:17:16.391Z,40
2017-08-03T12:18:16.970Z,35
2017-08-03T12:19:17.552Z,45
2017-08-03T12:20:18.133Z,35
2017-08-03T12:21:18.712Z,55
2017-08-03T12:22:19.296Z,55
2017-08-03T12:23:19.876Z,40
2017-08-03T12:24:20.457Z,50
2017-08-03T12:25:21.038Z,55
2017-08-03T12:26:21.620Z,55
2017-08-03T12:27:22.203Z,50
2017-08-03T12:28:22.784Z,60
2017-08-03T12:29:23.365Z,55
2017-08-03T12:30:23.966Z,60
2017-08-03T12:31:24.528Z,40
2017-08-03T12:32:25.110Z,35
2017-08-03T12:33:25.689Z,35
2017-08-03T12:34:26.271Z,35
2017-08-03T12:35:26.852Z,30
2017-08-03T12:36:27.431Z,35
2017-08-03T12:37:28.023Z,60
2017-08-03T12:38:28.605Z,40
2017-08-03T12:39:29.198Z,55
2017-08-03T12:40:29.778Z,50
2017-08-03T12:41:30.357Z,50
2017-08-03T12:42:30.937Z,30
2017-08-03T12:43:31.521Z,45
2017-08-03T12:44:32.100Z,30
2017-08-03T12:45:32.683Z,50
2017-08-03T12:46:33.264Z,45
2017-08-03T12:47:33.857Z,45
2017-08-03T12:48:34.451Z,50
2017-08-03T12:49:35.032Z,50
2017-08-03T12:50:35.613Z,50
2017-08-03T12:51:36.194Z,45
2017-08-03T12:52:36.778Z,45
2017-08-03T12:53:37.360Z,45
2017-08-03T12:54:37.942Z,50
2017-08-03T12:55:38.535Z,50
2017-08-03T12:56:39.115Z,50
2017-08-03T12:57:39.728Z,50
2017-08-03T12:58:40.292Z,50
2017-08-03T12:59:40.874Z,50
2017-08-03T13:00:41.458Z,50
2017-08-03T13:01:42.039Z,50
2017-08-03T13:02:42.621Z,50
2017-08-03T13:03:43.201Z,50
2017-08-03T13:04:43.782Z,25
2017-08-03T13:05:44.364Z,25
2017-08-03T13:06:44.945Z,30
2017-08-03T13:07:45.527Z,35
2017-08-03T13:08:46.111Z,35
2017-08-03T13:09:46.689Z,35
2017-08-03T13:10:47.268Z,35
2017-08-03T13:11:47.856Z,60
2017-08-03T13:12:48.446Z,30
2017-08-03T13:13:49.029Z,50
2017-08-03T13:14:49.611Z,30
2017-08-03T13:15:50.191Z,35
2017-08-03T13:16:50.773Z,30
2017-08-03T13:17:51.354Z,35
2017-08-03T13:18:51.948Z,35
2017-08-03T13:19:52.531Z,45
2017-08-03T13:20:53.113Z,35
2017-08-03T13:21:53.703Z,40
2017-08-03T13:22:54.284Z,65
2017-08-03T13:23:54.864Z,35
2017-08-03T13:24:55.445Z,30
2017-08-03T13:25:56.032Z,25
2017-08-03T13:26:56.618Z,30
2017-08-03T13:27:57.201Z,30
2017-08-03T13:28:57.784Z,30
2017-08-03T13:29:58.364Z,25
2017-08-03T13:30:58.944Z,20
2017-08-03T13:31:59.524Z,20
2017-08-03T13:33:00.105Z,20
2017-08-03T13:34:00.691Z,25
2017-08-03T13:35:01.268Z,25
2017-08-03T13:36:01.852Z,40
2017-08-03T13:37:02.433Z,40
2017-08-03T13:38:03.014Z,25
2017-08-03T13:39:03.597Z,20
2017-08-03T13:40:04.178Z,40
2017-08-03T13:41:04.761Z,20
2017-08-03T13:42:05.342Z,20
2017-08-03T13:43:05.934Z,15
2017-08-03T13:44:06.516Z,10
2017-08-03T13:45:07.096Z,10
2017-08-03T13:46:07.677Z,10
2017-08-03T13:47:08.269Z,10
2017-08-03T13:48:08.849Z,10
2017-08-03T13:49:09.429Z,10
2017-08-03T13:50:10.012Z,10
2017-08-03T13:51:10.593Z,15
2017-08-03T13:52:11.174Z,15
2017-08-03T13:53:11.753Z,20
2017-08-03T13:54:12.335Z,25
2017-08-03T13:55:12.914Z,30
2017-08-03T13:56:13.496Z,35
2017-08-03T13:57:14.079Z,35
2017-08-03T13:58:14.660Z,55
2017-08-03T13:59:15.254Z,55
2017-08-03T14:00:15.837Z,55
2017-08-03T14:01:16.416Z,55
2017-08-03T14:02:16.997Z,35
2017-08-03T14:03:17.579Z,35
2017-08-03T14:04:18.160Z,55
2017-08-03T14:05:18.743Z,55
2017-08-03T14:06:19.325Z,55
2017-08-03T14:07:19.906Z,50
2017-08-03T14:08:20.489Z,55
2017-08-03T14:09:21.072Z,55
2017-08-03T14:10:21.655Z,55
2017-08-03T14:11:22.236Z,55
2017-08-03T14:12:22.817Z,40
2017-08-03T14:13:23.399Z,60
2017-08-03T14:14:23.981Z,60
2017-08-03T14:15:24.562Z,60
2017-08-03T14:16:25.144Z,60
2017-08-03T14:17:25.737Z,55
2017-08-03T14:18:26.319Z,55
2017-08-03T14:19:26.902Z,55
2017-08-03T14:20:27.482Z,55
2017-08-03T14:21:28.065Z,55
2017-08-03T14:22:28.659Z,55
2017-08-03T14:23:29.240Z,60
2017-08-03T14:24:29.823Z,55
2017-08-03T14:25:30.405Z,55
2017-08-03T14:26:30.987Z,55
2017-08-03T14:27:31.570Z,60
2017-08-03T14:28:32.152Z,60
2017-08-03T14:29:32.745Z,60
2017-08-03T14:30:33.329Z,35
2017-08-03T14:31:33.923Z,60
2017-08-03T14:32:34.509Z,60
2017-08-03T14:33:35.088Z,35
2017-08-03T14:34:35.669Z,60
2017-08-03T14:35:36.251Z,35
2017-08-03T14:36:36.834Z,35